createdAt,value
2022-12-31T00:00:14.722Z,3.78
2022-12-31T00:02:41.748Z,2.35
2022-12-31T00:05:09.167Z,4.32
2022-12-31T00:10:03.789Z,3.95
2022-12-31T00:12:30.544Z,4.30
2022-12-31T00:14:57.301Z,3.80
2022-12-31T00:17:23.993Z,3.65
2022-12-31T00:19:50.707Z,4.47
2022-12-31T00:22:17.406Z,2.67
2022-12-31T00:24:44.121Z,4.10
2022-12-31T00:27:10.871Z,3.88
2022-12-31T00:29:37.714Z,3.40
2022-12-31T00:32:05.489Z,3.53
2022-12-31T00:34:32.596Z,5.60
2022-12-31T00:36:59.437Z,4.93
2022-12-31T00:39:26.200Z,5.10
2022-12-31T00:41:52.937Z,5.22
2022-12-31T00:44:19.711Z,4.90
2022-12-31T00:46:46.478Z,5.95
2022-12-31T00:49:13.206Z,8.48
2022-12-31T00:51:40.296Z,4.95
2022-12-31T00:54:07.172Z,4.60
2022-12-31T00:56:33.886Z,4.97
2022-12-31T00:59:00.784Z,2.92
2022-12-31T01:01:36.452Z,4.45
2022-12-31T01:04:15.386Z,3.42
2022-12-31T01:06:43.323Z,4.65
2022-12-31T01:09:11.449Z,3.93
2022-12-31T01:11:38.310Z,4.70
2022-12-31T01:14:08.235Z,2.22
2022-12-31T01:16:41.388Z,3.67
2022-12-31T01:19:12.521Z,4.28
2022-12-31T01:21:41.607Z,3.43
2022-12-31T01:24:10.458Z,3.33
2022-12-31T01:26:37.795Z,4.43
2022-12-31T01:29:06.040Z,4.15
2022-12-31T01:31:34.457Z,2.78
2022-12-31T01:34:01.452Z,7.23
2022-12-31T01:36:30.323Z,5.05
2022-12-31T01:38:59.813Z,5.25
2022-12-31T01:41:32.849Z,5.50
2022-12-31T01:44:13.196Z,3.08
2022-12-31T01:46:47.804Z,4.03
2022-12-31T01:49:46.645Z,6.75
2022-12-31T01:52:28.499Z,6.22
2022-12-31T01:55:06.329Z,2.88
2022-12-31T01:57:33.553Z,3.22
2022-12-31T02:00:01.791Z,6.87
2022-12-31T02:02:31.701Z,3.38
2022-12-31T02:05:02.694Z,2.92
2022-12-31T02:07:29.481Z,3.58
2022-12-31T02:09:56.249Z,7.22
2022-12-31T02:12:23.606Z,5.57
2022-12-31T02:14:52.871Z,5.63
2022-12-31T02:17:22.901Z,5.97
2022-12-31T02:20:10.664Z,3.97
2022-12-31T02:23:10.616Z,3.88
2022-12-31T02:26:05.270Z,4.73
2022-12-31T02:29:08.253Z,4.60
2022-12-31T02:31:46.198Z,3.88
2022-12-31T02:34:35.543Z,5.30
2022-12-31T02:37:06.878Z,4.60
2022-12-31T02:39:35.553Z,7.67
2022-12-31T02:42:03.233Z,3.92
2022-12-31T02:44:35.268Z,4.30
2022-12-31T02:47:07.892Z,3.38
2022-12-31T02:49:59.683Z,3.55
2022-12-31T02:52:38.821Z,5.30
2022-12-31T02:55:36.105Z,4.32
2022-12-31T02:58:43.875Z,4.03
2022-12-31T03:01:29.466Z,3.75
2022-12-31T03:04:16.198Z,3.13
2022-12-31T03:06:43.672Z,2.37
2022-12-31T03:09:13.228Z,4.60
2022-12-31T03:11:59.199Z,3.92
2022-12-31T03:14:25.987Z,4.15
2022-12-31T03:16:52.735Z,2.40
2022-12-31T03:19:38.294Z,4.33
2022-12-31T03:22:23.796Z,5.28
2022-12-31T03:25:09.293Z,4.00
2022-12-31T03:27:35.978Z,2.83
2022-12-31T03:30:03.486Z,3.92
2022-12-31T03:32:30.283Z,4.07
2022-12-31T03:34:56.958Z,4.32
2022-12-31T03:37:23.719Z,3.60
2022-12-31T03:39:50.438Z,5.88
2022-12-31T03:42:17.180Z,3.72
2022-12-31T03:44:44.205Z,3.40
2022-12-31T03:47:10.957Z,8.63
2022-12-31T03:49:37.696Z,5.18
2022-12-31T03:52:06.379Z,3.38
2022-12-31T03:54:33.137Z,3.63
2022-12-31T03:57:00.381Z,2.17
2022-12-31T03:59:27.279Z,3.53
2022-12-31T04:01:54.227Z,4.78
2022-12-31T04:04:21.062Z,3.50
2022-12-31T04:06:47.969Z,2.30
2022-12-31T04:09:14.714Z,4.93
2022-12-31T04:11:41.428Z,3.67
2022-12-31T04:14:08.449Z,4.45
2022-12-31T04:16:35.314Z,3.92
2022-12-31T04:19:02.148Z,5.72
2022-12-31T04:21:34.664Z,2.70
2022-12-31T04:24:02.663Z,4.82
2022-12-31T04:26:29.477Z,3.25
2022-12-31T04:28:56.233Z,5.88
2022-12-31T04:31:23.469Z,3.88
2022-12-31T04:33:50.270Z,3.17
2022-12-31T04:36:17.319Z,3.90
2022-12-31T04:38:44.022Z,3.42
2022-12-31T04:41:20.913Z,4.95
2022-12-31T04:43:49.422Z,3.58
2022-12-31T04:46:17.915Z,4.73
2022-12-31T04:48:44.710Z,3.33
2022-12-31T04:51:11.827Z,2.35
2022-12-31T04:53:39.224Z,2.50
2022-12-31T04:56:07.270Z,3.42
2022-12-31T04:58:34.290Z,4.17
2022-12-31T05:01:01.487Z,3.70
2022-12-31T05:03:28.718Z,4.28
2022-12-31T05:06:01.587Z,3.40
2022-12-31T05:08:28.708Z,4.60
2022-12-31T05:10:55.487Z,3.30
2022-12-31T05:13:28.001Z,3.97
2022-12-31T05:15:57.871Z,4.10
2022-12-31T05:18:24.651Z,3.85
2022-12-31T05:20:51.380Z,3.80
2022-12-31T05:23:18.579Z,4.53
2022-12-31T05:25:46.740Z,4.75
2022-12-31T05:28:14.222Z,3.13
2022-12-31T05:30:41.902Z,4.88
2022-12-31T05:33:08.951Z,3.15
2022-12-31T05:35:35.678Z,3.67
2022-12-31T05:38:02.412Z,3.20
2022-12-31T05:40:29.158Z,3.90
2022-12-31T05:42:55.865Z,3.63
2022-12-31T05:45:28.363Z,4.03
2022-12-31T05:47:57.341Z,2.83
2022-12-31T05:50:24.068Z,3.30
2022-12-31T05:52:55.747Z,3.85
2022-12-31T05:55:22.949Z,3.25
2022-12-31T05:57:49.707Z,3.03
2022-12-31T06:00:16.801Z,2.77
2022-12-31T06:02:45.012Z,2.75
2022-12-31T06:05:12.306Z,2.67
2022-12-31T06:07:39.263Z,4.30
2022-12-31T06:10:06.852Z,3.08
2022-12-31T06:12:33.630Z,2.20
2022-12-31T06:15:00.477Z,2.20
2022-12-31T06:17:31.900Z,2.17
2022-12-31T06:19:59.812Z,2.10
2022-12-31T06:22:26.945Z,2.53
2022-12-31T06:24:53.805Z,2.27
2022-12-31T06:27:20.600Z,2.30
2022-12-31T06:29:48.002Z,2.53
2022-12-31T06:32:16.065Z,2.80
2022-12-31T06:34:42.739Z,2.38
2022-12-31T06:37:09.947Z,3.00
2022-12-31T06:39:36.652Z,4.07
2022-12-31T06:42:03.400Z,3.58
2022-12-31T06:44:30.211Z,3.17
2022-12-31T06:46:56.951Z,3.70
2022-12-31T06:49:23.670Z,3.73
2022-12-31T06:51:50.417Z,3.15
2022-12-31T06:54:17.118Z,3.85
2022-12-31T06:56:44.240Z,4.22
2022-12-31T06:59:23.162Z,4.45
2022-12-31T07:02:21.550Z,4.20
2022-12-31T07:05:09.918Z,4.20
2022-12-31T07:07:42.474Z,5.63
2022-12-31T07:10:33.911Z,4.43
2022-12-31T07:13:19.412Z,3.92
2022-12-31T07:15:57.596Z,3.33
2022-12-31T07:18:44.161Z,2.90
2022-12-31T07:21:17.621Z,3.08
2022-12-31T07:23:44.826Z,2.58
2022-12-31T07:26:39.235Z,2.50
2022-12-31T07:29:24.491Z,2.33
2022-12-31T07:32:00.221Z,2.05
2022-12-31T07:34:48.578Z,5.10
2022-12-31T07:37:25.723Z,1.35
2022-12-31T07:40:03.175Z,1.70
2022-12-31T07:43:02.822Z,1.27
2022-12-31T07:45:50.937Z,1.27
2022-12-31T07:48:27.134Z,1.52
2022-12-31T07:50:55.926Z,1.92
2022-12-31T07:53:26.547Z,2.20
2022-12-31T07:55:59.941Z,1.57
2022-12-31T07:58:55.591Z,1.33
2022-12-31T08:01:35.148Z,1.63
2022-12-31T08:04:21.128Z,1.65
2022-12-31T08:07:02.511Z,1.33
2022-12-31T08:09:32.029Z,2.00
2022-12-31T08:12:02.157Z,3.65
2022-12-31T08:14:30.004Z,1.60
2022-12-31T08:16:57.729Z,1.85
2022-12-31T08:19:30.026Z,1.38
2022-12-31T08:22:31.688Z,2.57
2022-12-31T08:25:19.423Z,1.98
2022-12-31T08:27:58.114Z,2.47
2022-12-31T08:30:37.040Z,2.63
2022-12-31T08:33:06.625Z,2.50
2022-12-31T08:36:08.429Z,3.00
2022-12-31T08:38:50.398Z,27.25
2022-12-31T08:41:43.060Z,2.97
2022-12-31T08:44:31.379Z,2.45
2022-12-31T08:47:10.738Z,1.95
2022-12-31T08:49:37.623Z,3.60
2022-12-31T08:52:09.201Z,1.63
2022-12-31T08:54:36.175Z,2.10
2022-12-31T08:57:14.537Z,2.13
2022-12-31T09:00:12.112Z,3.20
2022-12-31T09:02:53.650Z,1.60
2022-12-31T09:05:29.351Z,2.25
2022-12-31T09:08:08.295Z,2.33
2022-12-31T09:10:39.758Z,1.52
2022-12-31T09:13:15.097Z,1.92
2022-12-31T09:15:47.452Z,2.67
2022-12-31T09:18:14.919Z,2.33
2022-12-31T09:20:43.914Z,3.60
2022-12-31T09:23:12.596Z,4.63
2022-12-31T09:25:57.466Z,8.30
2022-12-31T09:28:39.471Z,3.40
2022-12-31T09:31:15.545Z,2.17
2022-12-31T09:34:08.138Z,4.70
2022-12-31T09:36:50.476Z,3.15
2022-12-31T09:39:17.367Z,4.95
2022-12-31T09:41:57.879Z,3.27
2022-12-31T09:44:52.385Z,3.90
2022-12-31T09:47:25.096Z,5.25
2022-12-31T09:50:27.763Z,4.22
2022-12-31T09:53:13.371Z,4.03
2022-12-31T09:55:57.005Z,4.73
2022-12-31T09:58:42.778Z,6.25
2022-12-31T10:01:37.981Z,5.07
2022-12-31T10:04:25.433Z,3.60
2022-12-31T10:07:04.787Z,4.78
2022-12-31T10:09:57.557Z,5.20
2022-12-31T10:12:55.077Z,6.80
2022-12-31T10:15:39.882Z,3.50
2022-12-31T10:18:44.941Z,4.65
2022-12-31T10:21:21.559Z,5.00
2022-12-31T10:23:48.595Z,4.10
2022-12-31T10:26:41.870Z,3.17
2022-12-31T10:29:19.893Z,3.00
2022-12-31T10:32:17.747Z,3.35
2022-12-31T10:34:57.926Z,3.08
2022-12-31T10:37:43.035Z,3.67
2022-12-31T10:40:18.899Z,5.18
2022-12-31T10:43:19.527Z,4.03
2022-12-31T10:45:53.449Z,3.70
2022-12-31T10:49:04.081Z,3.38
2022-12-31T10:51:53.778Z,6.73
2022-12-31T10:54:35.706Z,5.55
2022-12-31T10:57:08.993Z,2.97
2022-12-31T10:59:44.655Z,3.97
2022-12-31T11:02:32.409Z,7.25
2022-12-31T11:05:23.841Z,7.30
2022-12-31T11:08:00.798Z,4.22
2022-12-31T11:10:58.943Z,4.75
2022-12-31T11:13:46.732Z,5.75
2022-12-31T11:16:26.416Z,5.20
2022-12-31T11:19:04.955Z,7.13
2022-12-31T11:22:03.960Z,2.17
2022-12-31T11:25:01.651Z,4.65
2022-12-31T11:27:37.084Z,6.35
2022-12-31T11:30:27.511Z,5.05
2022-12-31T11:33:20.835Z,7.23
2022-12-31T11:36:00.576Z,6.00
2022-12-31T11:38:37.062Z,7.78
2022-12-31T11:41:13.810Z,8.57
2022-12-31T11:43:54.704Z,4.82
2022-12-31T11:46:42.858Z,9.87
2022-12-31T11:49:48.701Z,6.63
2022-12-31T11:52:42.231Z,5.20
2022-12-31T11:55:30.127Z,5.75
2022-12-31T11:58:01.971Z,7.82
2022-12-31T12:00:32.115Z,4.37
2022-12-31T12:03:06.240Z,11.02
2022-12-31T12:05:34.891Z,6.32
2022-12-31T12:08:02.252Z,5.25
2022-12-31T12:10:36.427Z,7.00
2022-12-31T12:13:13.435Z,4.37
2022-12-31T12:15:44.851Z,4.82
2022-12-31T12:18:25.715Z,4.93
2022-12-31T12:20:53.259Z,4.50
2022-12-31T12:23:28.989Z,5.93
2022-12-31T12:25:55.700Z,6.43
2022-12-31T12:28:26.294Z,7.13
2022-12-31T12:30:55.784Z,3.92
2022-12-31T12:33:22.750Z,7.18
2022-12-31T12:35:49.628Z,4.50
2022-12-31T12:38:23.508Z,6.57
2022-12-31T12:41:00.136Z,5.47
2022-12-31T12:43:33.011Z,4.13
2022-12-31T12:46:02.301Z,5.95
2022-12-31T12:48:42.609Z,3.67
2022-12-31T12:51:18.530Z,6.17
2022-12-31T12:54:00.423Z,9.20
2022-12-31T12:56:48.136Z,5.57
2022-12-31T12:59:29.920Z,6.60
2022-12-31T13:02:18.256Z,4.40
2022-12-31T13:04:50.790Z,5.10
2022-12-31T13:07:46.078Z,7.18
2022-12-31T13:10:20.786Z,3.70
2022-12-31T13:13:26.214Z,4.68
2022-12-31T13:16:15.992Z,4.63
2022-12-31T13:18:49.731Z,5.87
2022-12-31T13:21:34.648Z,8.25
2022-12-31T13:24:14.063Z,5.35
2022-12-31T13:26:55.783Z,7.15
2022-12-31T13:29:27.890Z,5.13
2022-12-31T13:31:57.093Z,9.77
2022-12-31T13:34:31.274Z,5.25
2022-12-31T13:37:06.900Z,5.20
2022-12-31T13:39:40.584Z,5.75
2022-12-31T13:42:24.337Z,5.55
2022-12-31T13:45:09.606Z,10.70
2022-12-31T13:47:45.169Z,5.60
2022-12-31T13:50:22.461Z,8.05
2022-12-31T13:52:56.687Z,6.15
2022-12-31T13:55:32.134Z,8.43
2022-12-31T13:58:31.632Z,6.30
2022-12-31T14:01:19.141Z,6.57
2022-12-31T14:04:04.870Z,9.07
2022-12-31T14:07:00.560Z,7.40
2022-12-31T14:09:30.863Z,5.97
2022-12-31T14:12:09.449Z,7.43
2022-12-31T14:14:54.358Z,8.85
2022-12-31T14:17:39.111Z,6.32
2022-12-31T14:20:21.927Z,6.15
2022-12-31T14:23:13.381Z,7.47
2022-12-31T14:25:54.570Z,8.97
2022-12-31T14:28:32.420Z,6.90
2022-12-31T14:31:26.448Z,5.50
2022-12-31T14:34:25.690Z,7.28
2022-12-31T14:37:11.779Z,9.68
2022-12-31T14:40:02.273Z,9.43
2022-12-31T14:43:04.571Z,5.97
2022-12-31T14:45:40.617Z,4.97
2022-12-31T14:48:30.429Z,8.38
2022-12-31T14:51:00.923Z,8.05
2022-12-31T14:53:29.214Z,7.07
2022-12-31T14:56:01.061Z,7.38
2022-12-31T14:58:37.794Z,7.70
2022-12-31T15:01:22.309Z,8.40
2022-12-31T15:03:52.371Z,6.38
2022-12-31T15:06:42.458Z,6.73
2022-12-31T15:09:18.129Z,5.30
2022-12-31T15:12:20.149Z,9.05
2022-12-31T15:15:14.939Z,12.77
2022-12-31T15:18:12.002Z,11.68
2022-12-31T15:21:03.202Z,10.30
2022-12-31T15:23:39.176Z,6.97
2022-12-31T15:26:07.046Z,10.35
2022-12-31T15:28:39.427Z,11.15
2022-12-31T15:31:20.555Z,8.30
2022-12-31T15:34:01.859Z,11.33
2022-12-31T15:36:38.563Z,10.43
2022-12-31T15:39:11.486Z,14.93
2022-12-31T15:44:45.121Z,14.68
2022-12-31T15:47:29.512Z,8.60
2022-12-31T15:49:59.686Z,16.27
2022-12-31T15:52:50.460Z,14.13
2022-12-31T15:55:26.739Z,9.25
2022-12-31T15:57:58.322Z,12.32
2022-12-31T16:00:25.188Z,9.90
2022-12-31T16:02:54.878Z,13.65
2022-12-31T16:05:27.738Z,9.38
2022-12-31T16:07:56.705Z,9.82
2022-12-31T16:10:32.425Z,9.23
2022-12-31T16:13:00.140Z,10.10
2022-12-31T16:15:30.348Z,8.45
2022-12-31T16:18:20.832Z,14.85
2022-12-31T16:20:51.679Z,17.60
2022-12-31T16:23:24.911Z,10.07
2022-12-31T16:25:55.114Z,13.30
2022-12-31T16:28:29.661Z,19.35
2022-12-31T16:31:14.747Z,15.57
2022-12-31T16:33:41.526Z,14.55
2022-12-31T16:36:20.934Z,15.70
2022-12-31T16:38:48.261Z,13.47
2022-12-31T16:41:20.386Z,16.63
2022-12-31T16:43:49.778Z,10.70
2022-12-31T16:46:26.745Z,20.90
2022-12-31T16:49:00.150Z,14.48
2022-12-31T16:51:32.368Z,14.93
2022-12-31T16:54:01.378Z,6.03
2022-12-31T16:56:39.259Z,11.85
2022-12-31T16:59:29.306Z,9.70
2022-12-31T17:02:01.670Z,10.63
2022-12-31T17:04:28.684Z,9.67
2022-12-31T17:06:55.451Z,10.15
2022-12-31T17:09:33.491Z,12.60
2022-12-31T17:12:16.532Z,9.95
2022-12-31T17:14:51.342Z,14.73
2022-12-31T17:17:25.518Z,10.63
2022-12-31T17:19:58.123Z,12.55
2022-12-31T17:22:35.899Z,12.15
2022-12-31T17:25:23.902Z,12.85
2022-12-31T17:27:54.042Z,14.80
2022-12-31T17:30:28.495Z,15.03
2022-12-31T17:33:03.793Z,22.23
2022-12-31T17:35:33.401Z,15.52
2022-12-31T17:38:30.875Z,13.18
2022-12-31T17:41:15.961Z,12.90
2022-12-31T17:43:43.165Z,8.27
2022-12-31T17:46:16.001Z,11.68
2022-12-31T17:48:45.027Z,10.70
2022-12-31T17:51:12.060Z,11.57
2022-12-31T17:53:38.810Z,14.00
2022-12-31T17:56:07.566Z,12.00
2022-12-31T17:58:43.560Z,10.40
2022-12-31T18:01:13.541Z,10.93
2022-12-31T18:03:40.389Z,13.30
2022-12-31T18:06:14.648Z,13.40
2022-12-31T18:08:43.540Z,9.37
2022-12-31T18:11:22.988Z,7.72
2022-12-31T18:13:50.364Z,8.77
2022-12-31T18:16:17.296Z,10.55
2022-12-31T18:18:45.393Z,7.32
2022-12-31T18:21:23.316Z,6.90
2022-12-31T18:23:50.203Z,9.57
2022-12-31T18:26:22.912Z,8.82
2022-12-31T18:28:50.021Z,16.23
2022-12-31T18:31:28.343Z,12.95
2022-12-31T18:33:57.206Z,10.60
2022-12-31T18:36:25.301Z,10.73
2022-12-31T18:38:52.610Z,10.40
2022-12-31T18:41:27.842Z,11.45
2022-12-31T18:43:55.085Z,11.55
2022-12-31T18:46:24.439Z,9.67
2022-12-31T18:48:51.557Z,9.73
2022-12-31T18:51:31.072Z,6.05
2022-12-31T18:54:00.199Z,10.18
2022-12-31T18:56:27.520Z,9.90
2022-12-31T18:58:54.497Z,11.93
2022-12-31T19:01:21.260Z,7.72
2022-12-31T19:03:48.083Z,9.10
2022-12-31T19:06:15.123Z,15.48
2022-12-31T19:08:41.831Z,10.15
2022-12-31T19:11:13.432Z,16.73
2022-12-31T19:13:40.344Z,14.60
2022-12-31T19:16:07.793Z,9.32
2022-12-31T19:18:34.838Z,9.80
2022-12-31T19:21:02.299Z,10.45
2022-12-31T19:23:29.064Z,8.93
2022-12-31T19:25:55.918Z,9.93
2022-12-31T19:28:24.865Z,10.93
2022-12-31T19:30:51.886Z,8.07
2022-12-31T19:33:19.429Z,9.20
2022-12-31T19:35:46.952Z,10.50
2022-12-31T19:38:19.949Z,12.23
2022-12-31T19:40:47.406Z,19.60
2022-12-31T19:43:15.878Z,11.18
2022-12-31T19:45:43.905Z,10.10
2022-12-31T19:48:15.737Z,8.90
2022-12-31T19:50:48.500Z,10.52
2022-12-31T19:53:18.429Z,10.07
2022-12-31T19:55:45.427Z,16.08
2022-12-31T19:58:23.084Z,11.18
2022-12-31T20:00:55.869Z,11.80
2022-12-31T20:03:24.301Z,9.68
2022-12-31T20:05:51.431Z,10.93
2022-12-31T20:08:20.259Z,16.13
2022-12-31T20:10:47.057Z,12.98
2022-12-31T20:13:13.826Z,19.63
2022-12-31T20:15:47.526Z,11.25
2022-12-31T20:18:17.308Z,10.32
2022-12-31T20:20:49.257Z,14.85
2022-12-31T20:23:20.344Z,8.40
2022-12-31T20:25:57.285Z,9.73
2022-12-31T20:28:24.156Z,12.93
2022-12-31T20:30:51.130Z,14.02
2022-12-31T20:33:19.294Z,10.57
2022-12-31T20:35:46.430Z,13.65
2022-12-31T20:38:13.147Z,9.33
2022-12-31T20:40:44.701Z,12.20
2022-12-31T20:43:13.689Z,23.33
2022-12-31T20:45:41.600Z,12.73
2022-12-31T20:48:08.583Z,13.18
2022-12-31T20:50:35.653Z,9.03
2022-12-31T20:53:02.934Z,17.00
2022-12-31T20:55:30.838Z,16.05
2022-12-31T20:57:57.979Z,15.50
2022-12-31T21:00:24.718Z,12.43
2022-12-31T21:02:58.985Z,14.77
2022-12-31T21:05:31.201Z,11.02
2022-12-31T21:07:58.087Z,11.10
2022-12-31T21:10:24.823Z,11.68
2022-12-31T21:12:54.184Z,7.82
2022-12-31T21:15:21.733Z,18.90
2022-12-31T21:17:48.720Z,16.70
2022-12-31T21:20:15.552Z,11.77
2022-12-31T21:22:42.310Z,12.30
2022-12-31T21:25:10.373Z,12.77
2022-12-31T21:27:37.137Z,14.00
2022-12-31T21:30:20.398Z,13.93
2022-12-31T21:32:47.838Z,18.75
2022-12-31T21:35:42.252Z,13.13
2022-12-31T21:38:06.124Z,13.23
2022-12-31T21:40:33.408Z,14.83
2022-12-31T21:43:00.300Z,12.82
2022-12-31T21:45:27.111Z,12.38
2022-12-31T21:48:12.169Z,14.52
2022-12-31T21:50:38.872Z,11.95
2022-12-31T21:53:05.569Z,12.87
2022-12-31T21:55:50.671Z,13.50
2022-12-31T21:58:26.313Z,12.70
2022-12-31T22:01:13.438Z,11.82
2022-12-31T22:03:41.092Z,11.63
2022-12-31T22:06:14.088Z,10.83
2022-12-31T22:08:43.215Z,16.25
2022-12-31T22:11:11.401Z,13.95
2022-12-31T22:13:38.954Z,9.82
2022-12-31T22:16:07.080Z,15.65
2022-12-31T22:18:39.138Z,11.90
2022-12-31T22:21:12.270Z,16.98
2022-12-31T22:23:45.691Z,16.48
2022-12-31T22:26:14.549Z,11.50
2022-12-31T22:28:43.003Z,14.48
2022-12-31T22:31:14.394Z,9.37
2022-12-31T22:33:41.708Z,12.20
2022-12-31T22:36:11.862Z,12.35
2022-12-31T22:38:38.722Z,11.88
2022-12-31T22:41:17.983Z,16.45
2022-12-31T22:43:48.522Z,15.43
2022-12-31T22:46:21.243Z,12.13
2022-12-31T22:48:48.625Z,10.70
2022-12-31T22:51:16.192Z,12.38
2022-12-31T22:53:43.418Z,11.25
2022-12-31T22:56:12.295Z,15.47
2022-12-31T22:58:39.397Z,17.55
2022-12-31T23:01:07.894Z,14.52
2022-12-31T23:03:34.931Z,60.20
2022-12-31T23:06:01.647Z,37.35
2022-12-31T23:08:28.457Z,34.83
2022-12-31T23:11:02.799Z,53.35
2022-12-31T23:13:58.775Z,113.10
2022-12-31T23:16:46.648Z,94.93
2022-12-31T23:19:33.431Z,93.97
2022-12-31T23:22:19.034Z,60.17
2022-12-31T23:24:45.758Z,36.53
2022-12-31T23:27:12.554Z,30.13
2022-12-31T23:29:46.522Z,33.85
2022-12-31T23:32:16.164Z,74.93
2022-12-31T23:34:44.524Z,47.20
2022-12-31T23:37:12.617Z,38.17
2022-12-31T23:39:39.620Z,30.25
2022-12-31T23:42:06.385Z,37.97
2022-12-31T23:44:33.213Z,33.97
2022-12-31T23:47:00.106Z,24.47
2022-12-31T23:49:26.899Z,37.60
2022-12-31T23:51:53.654Z,24.67
2022-12-31T23:54:20.462Z,26.60
2022-12-31T23:56:47.174Z,24.60
2022-12-31T23:59:13.982Z,22.03
